Time;durP1;ratioP1;P1;durP2;ratioP2;P2;SDS_P1;SDS_P2;PMS_P1;PMS_P2;Temp;Humidity;BMP_temperature;BMP_pressure;BME280_temperature;BME280_humidity;BME280_pressure;Samples;Min_cycle;Max_cycle;Signal;HPM_P1;HPM_P2
2023/03/02 00:01:50;;;;;;;23.83;17.77;;;3.50;92.90;;;;;;6255102;28;20228;-56
2023/03/02 00:04:57;;;;;;;23.17;17.03;;;3.50;92.70;;;;;;6270811;28;20185;-55
2023/03/02 00:07:59;;;;;;;24.87;16.13;;;3.50;92.50;;;;;;6252663;28;20194;-57
2023/03/02 00:11:00;;;;;;;26.00;15.67;;;3.50;92.50;;;;;;6251174;28;20217;-56
2023/03/02 00:14:01;;;;;;;19.53;15.17;;;3.50;92.40;;;;;;6264997;28;20215;-55
2023/03/02 00:17:01;;;;;;;24.40;16.87;;;3.40;92.50;;;;;;6254769;28;20189;-55
2023/03/02 00:20:09;;;;;;;22.60;16.50;;;3.40;92.20;;;;;;6248825;28;20221;-57
2023/03/02 00:23:09;;;;;;;27.33;17.07;;;3.40;92.40;;;;;;6265180;28;20214;-57
2023/03/02 00:26:10;;;;;;;24.87;15.97;;;3.50;92.40;;;;;;6249115;28;20198;-56
2023/03/02 00:29:11;;;;;;;22.83;16.63;;;3.40;92.10;;;;;;6262184;28;20229;-55
2023/03/02 00:32:13;;;;;;;24.53;16.63;;;3.30;92.30;;;;;;6235913;28;20214;-55
2023/03/02 00:35:14;;;;;;;22.43;15.37;;;3.30;92.60;;;;;;6258686;28;20191;-56
2023/03/02 00:38:15;;;;;;;23.27;16.50;;;3.30;92.70;;;;;;6248287;28;20247;-57
2023/03/02 00:41:17;;;;;;;19.57;14.87;;;3.40;92.70;;;;;;6259757;28;20189;-56
2023/03/02 00:44:17;;;;;;;24.00;16.00;;;3.40;92.70;;;;;;6224415;28;20203;-55
2023/03/02 00:47:18;;;;;;;22.37;15.63;;;3.40;92.80;;;;;;6229599;28;20206;-57
2023/03/02 00:50:19;;;;;;;19.50;14.87;;;3.40;92.70;;;;;;6261752;28;20218;-56
2023/03/02 00:53:20;;;;;;;21.83;14.93;;;3.40;92.70;;;;;;6251941;28;20197;-57
2023/03/02 00:56:20;;;;;;;22.90;15.83;;;3.40;92.70;;;;;;6255467;28;20193;-57
2023/03/02 00:59:27;;;;;;;23.73;16.50;;;3.40;92.50;;;;;;6246868;28;20194;-55
2023/03/02 01:02:28;;;;;;;21.50;15.83;;;3.40;92.50;;;;;;6249436;28;20202;-57
2023/03/02 01:05:28;;;;;;;21.27;15.30;;;3.40;92.60;;;;;;6244686;28;20205;-56
2023/03/02 01:08:30;;;;;;;24.70;16.17;;;3.40;92.70;;;;;;6241134;28;20198;-56
2023/03/02 01:11:30;;;;;;;22.13;16.53;;;3.40;92.80;;;;;;6265835;28;20252;-57
2023/03/02 01:14:31;;;;;;;21.07;14.53;;;3.40;92.80;;;;;;6270885;28;20181;-58
2023/03/02 01:17:32;;;;;;;21.83;15.57;;;3.40;93.00;;;;;;6240542;28;20189;-58
2023/03/02 01:20:32;;;;;;;27.23;17.77;;;3.40;93.10;;;;;;6253095;28;20199;-56
2023/03/02 01:23:33;;;;;;;20.63;14.93;;;3.40;93.20;;;;;;6238968;28;20243;-57
2023/03/02 01:26:34;;;;;;;20.00;15.10;;;3.40;93.30;;;;;;6259243;28;20252;-58
2023/03/02 01:29:36;;;;;;;24.23;15.97;;;3.40;93.20;;;;;;6272507;28;20233;-57
2023/03/02 01:32:37;;;;;;;24.47;16.10;;;3.50;93.30;;;;;;6256794;28;20190;-58
2023/03/02 01:35:37;;;;;;;20.90;15.97;;;3.40;93.20;;;;;;6266583;28;20247;-58
2023/03/02 01:38:38;;;;;;;23.00;16.13;;;3.50;93.20;;;;;;6247368;28;20190;-57
2023/03/02 01:41:39;;;;;;;23.00;16.93;;;3.40;93.30;;;;;;6247877;28;20189;-58
2023/03/02 01:44:51;;;;;;;23.60;16.07;;;3.40;93.50;;;;;;6260451;28;20214;-56
2023/03/02 01:47:51;;;;;;;21.73;15.07;;;3.40;93.40;;;;;;6270418;28;20255;-57
2023/03/02 01:50:53;;;;;;;19.10;15.50;;;3.40;93.50;;;;;;6239037;28;20209;-59
2023/03/02 01:54:07;;;;;;;24.20;16.70;;;3.40;93.60;;;;;;6248828;28;20594;-57
2023/03/02 01:57:09;;;;;;;21.30;16.97;;;3.40;93.90;;;;;;6265601;28;20193;-58
2023/03/02 02:00:14;;;;;;;21.70;15.37;;;3.40;93.50;;;;;;6253730;28;20221;-56
2023/03/02 02:03:26;;;;;;;26.37;16.50;;;3.40;93.60;;;;;;6259015;28;20222;-58
2023/03/02 02:06:37;;;;;;;23.33;15.77;;;3.40;93.90;;;;;;6263541;28;20194;-59
2023/03/02 02:09:47;;;;;;;25.80;16.00;;;3.30;94.00;;;;;;6282632;28;20260;-59
2023/03/02 02:12:48;;;;;;;21.50;15.53;;;3.30;94.20;;;;;;6290368;28;20199;-59
2023/03/02 02:15:49;;;;;;;23.70;15.43;;;3.40;94.20;;;;;;6250814;28;20213;-58
2023/03/02 02:18:50;;;;;;;25.63;17.07;;;3.30;94.20;;;;;;6240640;28;20195;-58
2023/03/02 02:21:51;;;;;;;22.50;15.83;;;3.30;94.30;;;;;;6254647;28;20192;-59
2023/03/02 02:24:57;;;;;;;23.07;16.37;;;3.30;94.50;;;;;;6257019;28;20201;-59
2023/03/02 02:27:59;;;;;;;22.13;15.97;;;3.30;94.50;;;;;;6252320;28;20266;-57
2023/03/02 02:31:14;;;;;;;21.53;15.20;;;3.30;94.50;;;;;;6251783;28;20222;-59
2023/03/02 02:34:24;;;;;;;23.03;16.07;;;3.30;94.70;;;;;;6260821;28;20191;-59
2023/03/02 02:37:33;;;;;;;23.53;16.33;;;3.30;94.60;;;;;;6261981;28;20186;-59
2023/03/02 02:40:52;;;;;;;20.23;15.00;;;3.30;94.70;;;;;;6255515;28;20191;-59
2023/03/02 02:43:54;;;;;;;22.63;14.80;;;3.30;94.80;;;;;;6273179;28;20365;-59
2023/03/02 02:46:54;;;;;;;22.87;16.67;;;3.30;94.90;;;;;;6265178;28;20194;-59
2023/03/02 02:49:57;;;;;;;20.50;15.97;;;3.30;95.00;;;;;;6252735;28;20266;-59
2023/03/02 02:53:24;;;;;;;19.37;14.70;;;3.30;95.00;;;;;;6265330;28;20190;-59
2023/03/02 02:56:37;;;;;;;20.73;15.33;;;3.30;95.30;;;;;;6249554;28;20183;-59
2023/03/02 02:59:46;;;;;;;22.30;14.30;;;3.30;95.30;;;;;;6264570;28;20198;-59
2023/03/02 03:02:54;;;;;;;25.10;14.73;;;3.30;95.10;;;;;;6257949;28;20190;-59
2023/03/02 03:05:57;;;;;;;21.57;14.40;;;3.30;95.30;;;;;;6248300;28;20191;-59
2023/03/02 03:09:00;;;;;;;21.20;15.20;;;3.30;95.20;;;;;;6237949;28;20221;-59
2023/03/02 03:12:12;;;;;;;19.40;15.33;;;3.30;95.10;;;;;;6265367;28;20198;-58
2023/03/02 03:15:14;;;;;;;23.50;15.60;;;3.30;95.00;;;;;;6259175;28;20190;-57
2023/03/02 03:18:23;;;;;;;23.60;16.33;;;3.30;95.10;;;;;;6258262;28;20221;-58
2023/03/02 03:21:24;;;;;;;23.93;15.77;;;3.30;95.30;;;;;;6252125;28;20275;-58
2023/03/02 03:24:26;;;;;;;22.43;16.80;;;3.30;95.30;;;;;;6252493;28;20201;-57
2023/03/02 03:27:27;;;;;;;23.47;16.63;;;3.30;95.30;;;;;;6260203;28;20232;-58
2023/03/02 03:30:28;;;;;;;23.13;17.37;;;3.30;95.10;;;;;;6250127;28;20230;-58
2023/03/02 03:33:28;;;;;;;23.60;17.50;;;3.30;94.80;;;;;;6248575;28;20224;-56
2023/03/02 03:36:30;;;;;;;25.30;16.53;;;3.30;94.50;;;;;;6251851;28;20186;-58
2023/03/02 03:39:31;;;;;;;25.13;17.37;;;3.30;94.60;;;;;;6255357;28;20195;-58
2023/03/02 03:42:31;;;;;;;23.47;16.87;;;3.30;94.90;;;;;;6249492;28;20194;-58
2023/03/02 03:45:32;;;;;;;20.33;16.47;;;3.30;94.80;;;;;;6239700;28;20220;-56
2023/03/02 03:48:33;;;;;;;21.90;15.67;;;3.30;94.90;;;;;;6265483;28;20196;-57
2023/03/02 03:51:34;;;;;;;25.13;17.93;;;3.30;95.00;;;;;;6263217;28;20193;-58
2023/03/02 03:54:34;;;;;;;23.23;16.60;;;3.30;95.20;;;;;;6259152;28;20221;-57
2023/03/02 03:57:35;;;;;;;25.10;17.57;;;3.30;95.20;;;;;;6255104;28;20179;-57
2023/03/02 04:00:36;;;;;;;24.00;16.70;;;3.30;95.30;;;;;;6238171;28;20239;-55
2023/03/02 04:03:37;;;;;;;22.37;16.10;;;3.30;95.30;;;;;;6253120;28;20186;-56
2023/03/02 04:06:37;;;;;;;22.40;16.13;;;3.30;95.40;;;;;;6239951;28;20187;-56
2023/03/02 04:09:38;;;;;;;27.53;17.83;;;3.30;95.50;;;;;;6266759;28;20237;-55
2023/03/02 04:12:41;;;;;;;25.50;17.53;;;3.30;95.70;;;;;;6252973;28;20191;-56
2023/03/02 04:15:42;;;;;;;23.67;17.47;;;3.30;95.70;;;;;;6261283;28;20213;-58
2023/03/02 04:18:43;;;;;;;25.13;16.53;;;3.30;95.70;;;;;;6256252;28;20248;-58
2023/03/02 04:21:47;;;;;;;20.53;15.77;;;3.30;95.70;;;;;;6262462;28;20196;-58
2023/03/02 04:24:49;;;;;;;24.57;17.70;;;3.30;95.70;;;;;;6259519;28;20209;-57
2023/03/02 04:27:51;;;;;;;24.77;16.63;;;3.30;95.70;;;;;;6275092;28;20217;-58
2023/03/02 04:30:52;;;;;;;23.70;17.07;;;3.30;95.70;;;;;;6267266;28;20219;-58
2023/03/02 04:33:53;;;;;;;26.57;18.30;;;3.30;95.70;;;;;;6255659;28;20286;-58
2023/03/02 04:36:54;;;;;;;23.40;17.07;;;3.30;95.60;;;;;;6271922;28;20194;-57
2023/03/02 04:39:55;;;;;;;20.97;15.43;;;3.30;95.30;;;;;;6272793;28;20204;-58
2023/03/02 04:42:55;;;;;;;25.03;16.17;;;3.30;95.30;;;;;;6256315;28;20194;-57
2023/03/02 04:45:56;;;;;;;25.60;16.00;;;3.30;95.40;;;;;;6263634;28;20197;-57
2023/03/02 04:48:57;;;;;;;22.63;15.73;;;3.30;95.50;;;;;;6261498;28;20212;-58
2023/03/02 04:51:58;;;;;;;23.33;16.00;;;3.30;95.70;;;;;;6242781;28;20197;-57
2023/03/02 04:54:58;;;;;;;23.53;16.33;;;3.30;95.70;;;;;;6266062;28;20197;-57
2023/03/02 04:57:59;;;;;;;22.40;15.23;;;3.30;95.80;;;;;;6243543;28;20190;-56
2023/03/02 05:01:01;;;;;;;20.97;15.63;;;3.30;95.80;;;;;;6237712;28;20199;-57
2023/03/02 05:04:02;;;;;;;22.40;16.23;;;3.30;95.70;;;;;;6264011;28;20218;-57
2023/03/02 05:07:03;;;;;;;23.00;16.63;;;3.30;95.70;;;;;;6243536;28;20225;-57
2023/03/02 05:10:04;;;;;;;22.17;16.80;;;3.30;95.70;;;;;;6251847;28;20210;-58
2023/03/02 05:13:05;;;;;;;21.73;16.30;;;3.30;95.80;;;;;;6251499;28;20221;-58
2023/03/02 05:16:06;;;;;;;24.60;17.13;;;3.30;96.00;;;;;;6221090;28;20201;-58
2023/03/02 05:19:09;;;;;;;24.27;17.57;;;3.30;96.00;;;;;;6246711;28;20190;-57
2023/03/02 05:22:10;;;;;;;24.13;17.20;;;3.30;96.00;;;;;;6282009;28;20220;-56
2023/03/02 05:25:10;;;;;;;24.13;16.67;;;3.30;95.90;;;;;;6260822;28;20189;-56
2023/03/02 05:28:11;;;;;;;23.73;17.27;;;3.30;95.90;;;;;;6267682;28;20249;-54
2023/03/02 05:31:34;;;;;;;20.33;15.47;;;3.30;95.90;;;;;;6248856;28;20273;-54
2023/03/02 05:34:35;;;;;;;25.00;16.87;;;3.30;96.10;;;;;;6253150;28;20198;-49
2023/03/02 05:37:38;;;;;;;23.73;17.17;;;3.30;95.90;;;;;;6267049;28;20190;-53
2023/03/02 05:40:41;;;;;;;22.37;15.97;;;3.40;95.80;;;;;;6270205;28;20189;-51
2023/03/02 05:43:42;;;;;;;21.23;16.60;;;3.40;95.80;;;;;;6265774;28;20284;-55
2023/03/02 05:46:42;;;;;;;21.30;15.33;;;3.30;95.70;;;;;;6262952;28;20193;-51
2023/03/02 05:49:43;;;;;;;23.10;15.20;;;3.40;95.70;;;;;;6239804;28;20238;-53
2023/03/02 05:52:44;;;;;;;23.00;15.20;;;3.40;95.50;;;;;;6254133;28;20224;-52
2023/03/02 05:55:45;;;;;;;25.67;16.27;;;3.40;95.60;;;;;;6265541;28;20228;-55
2023/03/02 05:58:45;;;;;;;19.40;15.07;;;3.50;95.70;;;;;;6249034;28;20198;-53
2023/03/02 06:01:47;;;;;;;21.70;15.47;;;3.50;95.70;;;;;;6264601;28;20245;-54
2023/03/02 06:04:48;;;;;;;20.27;15.47;;;3.50;95.80;;;;;;6241782;28;20205;-52
2023/03/02 06:07:48;;;;;;;23.10;16.90;;;3.50;95.80;;;;;;6225207;28;20189;-53
2023/03/02 06:10:49;;;;;;;24.33;16.53;;;3.50;95.60;;;;;;6229048;28;20275;-49
2023/03/02 06:13:50;;;;;;;18.97;14.57;;;3.50;95.60;;;;;;6242252;28;20201;-57
2023/03/02 06:16:51;;;;;;;20.23;15.13;;;3.50;95.50;;;;;;6251114;28;20198;-52
2023/03/02 06:19:51;;;;;;;19.23;14.30;;;3.50;95.60;;;;;;6239134;28;20198;-51
2023/03/02 06:22:52;;;;;;;18.27;13.83;;;3.50;95.50;;;;;;6271239;28;20297;-55
2023/03/02 06:25:53;;;;;;;19.50;14.07;;;3.60;95.60;;;;;;6229119;28;20343;-54
2023/03/02 06:28:54;;;;;;;26.83;16.33;;;3.60;95.50;;;;;;6248623;28;20270;-53
2023/03/02 06:31:55;;;;;;;20.27;15.67;;;3.60;95.50;;;;;;6267354;28;20219;-53
2023/03/02 06:34:55;;;;;;;21.17;15.07;;;3.70;95.40;;;;;;6243103;28;20194;-53
2023/03/02 06:37:56;;;;;;;20.23;15.27;;;3.70;95.40;;;;;;6251711;28;20191;-50
2023/03/02 06:40:57;;;;;;;24.47;15.70;;;3.70;95.50;;;;;;6252666;28;20202;-55
2023/03/02 06:43:58;;;;;;;21.63;15.23;;;3.80;95.50;;;;;;6257975;28;20284;-51
2023/03/02 06:46:59;;;;;;;19.20;13.67;;;3.80;95.40;;;;;;6262387;28;20272;-52
2023/03/02 06:50:00;;;;;;;24.50;16.30;;;3.90;95.60;;;;;;6245994;28;20214;-53
2023/03/02 06:53:01;;;;;;;21.67;14.90;;;3.90;95.50;;;;;;6261252;28;20196;-55
2023/03/02 06:56:02;;;;;;;21.77;14.63;;;4.00;95.20;;;;;;6248581;28;20204;-50
2023/03/02 06:59:02;;;;;;;21.30;14.83;;;4.00;95.10;;;;;;6245929;28;20190;-53
2023/03/02 07:02:03;;;;;;;19.70;15.13;;;4.10;95.00;;;;;;6246557;28;20226;-51
2023/03/02 07:05:05;;;;;;;17.70;13.73;;;4.10;94.80;;;;;;6260802;28;20268;-53
2023/03/02 07:08:06;;;;;;;18.70;14.33;;;4.10;94.70;;;;;;6267215;28;20224;-50
2023/03/02 07:11:12;;;;;;;19.23;15.43;;;4.10;94.70;;;;;;6247386;28;20216;-50
2023/03/02 07:14:12;;;;;;;17.30;13.97;;;4.10;95.00;;;;;;6251105;28;20194;-53
2023/03/02 07:17:13;;;;;;;23.37;16.27;;;4.20;94.70;;;;;;6249829;28;20198;-55
2023/03/02 07:20:16;;;;;;;22.10;15.90;;;4.20;94.70;;;;;;6255285;28;20190;-54
2023/03/02 07:23:17;;;;;;;21.33;15.60;;;4.20;94.50;;;;;;6247013;28;20182;-51
2023/03/02 07:26:18;;;;;;;19.37;14.77;;;4.30;94.50;;;;;;6244238;28;20193;-55
2023/03/02 07:29:18;;;;;;;19.63;14.53;;;4.40;94.50;;;;;;6271382;28;20321;-50
2023/03/02 07:32:19;;;;;;;21.07;14.93;;;4.50;94.00;;;;;;6255249;28;20197;-50
2023/03/02 07:35:20;;;;;;;19.57;14.50;;;4.50;93.40;;;;;;6246994;28;20186;-50
2023/03/02 07:38:21;;;;;;;23.53;15.77;;;4.50;93.20;;;;;;6249201;28;20177;-52
2023/03/02 07:41:21;;;;;;;21.73;14.93;;;4.70;93.00;;;;;;6249913;28;20182;-54
2023/03/02 07:44:22;;;;;;;20.00;15.30;;;4.70;92.20;;;;;;6244450;28;20197;-55
2023/03/02 07:47:23;;;;;;;22.90;15.90;;;4.70;92.20;;;;;;6237520;28;20198;-52
2023/03/02 07:50:23;;;;;;;19.87;14.83;;;4.80;92.10;;;;;;6244277;28;20220;-52
2023/03/02 07:53:24;;;;;;;23.83;15.77;;;4.90;91.40;;;;;;6260218;28;20190;-54
2023/03/02 07:56:25;;;;;;;19.67;16.03;;;4.90;91.00;;;;;;6255788;28;20196;-53
2023/03/02 07:59:27;;;;;;;22.30;16.73;;;4.80;90.60;;;;;;6254583;28;20197;-51
2023/03/02 08:02:27;;;;;;;21.03;15.87;;;4.90;90.90;;;;;;6235640;28;20680;-54
2023/03/02 08:05:29;;;;;;;20.13;15.43;;;4.90;91.10;;;;;;6270857;28;20193;-53
2023/03/02 08:08:30;;;;;;;19.87;15.27;;;4.80;91.10;;;;;;6254859;28;20194;-52
2023/03/02 08:11:31;;;;;;;19.37;15.50;;;4.90;91.10;;;;;;6254399;28;20216;-52
2023/03/02 08:14:32;;;;;;;27.03;16.60;;;4.90;91.60;;;;;;6254476;28;20189;-54
2023/03/02 08:17:32;;;;;;;20.97;15.60;;;4.90;91.90;;;;;;6246356;28;20226;-54
2023/03/02 08:20:33;;;;;;;21.53;16.37;;;5.00;91.60;;;;;;6243967;28;20194;-53
2023/03/02 08:23:34;;;;;;;24.07;17.53;;;5.10;91.50;;;;;;6243093;28;20198;-50
2023/03/02 08:26:34;;;;;;;18.87;14.53;;;5.30;90.90;;;;;;6243404;28;20192;-53
2023/03/02 08:29:35;;;;;;;21.00;15.40;;;5.30;91.00;;;;;;6236120;28;20247;-55
2023/03/02 08:32:36;;;;;;;21.77;16.30;;;5.40;91.30;;;;;;6239035;28;20200;-52
2023/03/02 08:35:37;;;;;;;19.80;13.83;;;5.50;88.60;;;;;;6257983;28;20216;-53
2023/03/02 08:38:37;;;;;;;21.47;15.00;;;5.60;87.70;;;;;;6233452;28;20305;-54
2023/03/02 08:41:38;;;;;;;21.20;15.17;;;5.70;87.70;;;;;;6263016;28;20190;-50
2023/03/02 08:44:39;;;;;;;20.83;14.40;;;5.70;87.70;;;;;;6247259;28;20236;-50
2023/03/02 08:47:40;;;;;;;20.83;15.97;;;5.70;87.90;;;;;;6249231;28;20190;-49
2023/03/02 08:50:40;;;;;;;18.47;14.57;;;5.90;87.00;;;;;;6251632;28;20210;-50
2023/03/02 08:53:45;;;;;;;18.27;15.20;;;5.90;87.30;;;;;;6247013;28;20182;-50
2023/03/02 08:56:45;;;;;;;20.60;14.57;;;6.00;86.50;;;;;;6267249;28;20213;-52
2023/03/02 08:59:51;;;;;;;18.17;13.73;;;6.00;86.40;;;;;;6247337;28;20191;-52
2023/03/02 09:02:51;;;;;;;21.67;15.63;;;6.10;87.00;;;;;;6242562;28;20197;-53
2023/03/02 09:05:53;;;;;;;18.03;14.17;;;6.20;86.30;;;;;;6258186;28;20194;-52
2023/03/02 09:08:54;;;;;;;18.40;14.03;;;6.30;84.90;;;;;;6263031;28;20191;-50
2023/03/02 09:11:55;;;;;;;17.13;15.00;;;6.40;84.30;;;;;;6246474;28;20187;-52
2023/03/02 09:14:56;;;;;;;21.33;15.47;;;6.60;85.90;;;;;;6255110;28;20243;-50
2023/03/02 09:17:56;;;;;;;19.87;13.87;;;6.80;84.10;;;;;;6266135;28;20190;-50
2023/03/02 09:20:57;;;;;;;21.30;14.70;;;6.80;84.70;;;;;;6228714;28;20192;-52
2023/03/02 09:23:58;;;;;;;18.47;14.03;;;6.90;82.40;;;;;;6250392;28;20193;-51
2023/03/02 09:26:59;;;;;;;16.97;13.57;;;6.80;80.90;;;;;;6263121;28;20285;-51
2023/03/02 09:30:00;;;;;;;20.90;14.93;;;6.90;81.50;;;;;;6225974;28;20280;-49
2023/03/02 09:33:02;;;;;;;17.30;13.23;;;7.00;79.70;;;;;;6249001;28;20214;-52
2023/03/02 09:36:13;;;;;;;14.23;12.63;;;7.00;80.00;;;;;;6238827;28;20197;-52
2023/03/02 09:39:14;;;;;;;15.47;12.07;;;7.10;79.10;;;;;;6247069;28;20206;-51
2023/03/02 09:42:22;;;;;;;17.33;13.77;;;7.20;77.80;;;;;;6257325;28;20296;-52
2023/03/02 09:45:23;;;;;;;16.43;13.10;;;7.20;77.20;;;;;;6249473;28;20194;-51
2023/03/02 09:48:44;;;;;;;17.17;13.17;;;7.40;77.90;;;;;;6259036;28;20189;-51
2023/03/02 09:52:05;;;;;;;18.70;13.63;;;7.50;79.50;;;;;;6262448;28;20184;-52
2023/03/02 09:55:19;;;;;;;18.93;13.93;;;7.50;78.10;;;;;;6249702;28;20237;-49
2023/03/02 09:58:24;;;;;;;15.17;13.33;;;7.50;76.40;;;;;;6255281;28;20198;-53
2023/03/02 10:01:35;;;;;;;16.40;13.60;;;7.50;76.50;;;;;;6268796;28;20191;-51
2023/03/02 10:04:43;;;;;;;19.47;15.20;;;7.50;77.10;;;;;;6248981;28;20199;-49
2023/03/02 10:07:46;;;;;;;19.00;15.20;;;7.70;75.80;;;;;;6256146;28;20185;-50
2023/03/02 10:11:06;;;;;;;17.00;14.07;;;7.60;76.90;;;;;;6253714;28;20217;-50
2023/03/02 10:14:26;;;;;;;16.97;13.57;;;7.60;76.80;;;;;;6253522;28;20201;-50
2023/03/02 10:17:45;;;;;;;18.47;15.20;;;7.60;75.50;;;;;;6248494;28;20206;-50
2023/03/02 10:20:48;;;;;;;18.07;14.57;;;7.50;76.20;;;;;;6256510;28;20202;-53
2023/03/02 10:24:08;;;;;;;17.80;14.13;;;7.40;76.60;;;;;;6253043;28;20190;-50
2023/03/02 10:27:16;;;;;;;19.10;14.07;;;7.40;75.80;;;;;;6260185;28;20594;-50
2023/03/02 10:30:32;;;;;;;19.47;13.97;;;7.40;75.50;;;;;;6247899;28;20238;-51
2023/03/02 10:33:35;;;;;;;17.80;13.90;;;7.20;76.00;;;;;;6265971;28;20273;-51
2023/03/02 10:36:42;;;;;;;16.60;13.93;;;7.20;76.00;;;;;;6264721;28;20274;-50
2023/03/02 10:39:43;;;;;;;18.87;14.77;;;7.10;77.60;;;;;;6261453;28;20245;-49
2023/03/02 10:42:44;;;;;;;17.43;13.70;;;7.20;75.70;;;;;;6268429;28;20197;-52
2023/03/02 10:45:56;;;;;;;20.57;15.17;;;7.10;76.80;;;;;;6261208;28;20196;-51
2023/03/02 10:49:00;;;;;;;17.63;13.53;;;7.00;76.60;;;;;;6245872;28;20209;-54
2023/03/02 10:52:11;;;;;;;16.77;13.87;;;7.00;77.70;;;;;;6238907;28;20190;-49
2023/03/02 10:55:14;;;;;;;23.17;15.17;;;7.10;76.60;;;;;;6272044;28;20185;-48
2023/03/02 10:58:44;;;;;;;20.93;14.07;;;7.20;77.50;;;;;;6268686;28;20182;-51
2023/03/02 11:02:01;;;;;;;17.00;13.00;;;7.50;72.90;;;;;;6247098;28;20199;-52
2023/03/02 11:05:32;;;;;;;18.97;14.37;;;7.50;74.20;;;;;;6265159;28;20183;-50
2023/03/02 11:08:33;;;;;;;19.43;14.00;;;7.60;73.90;;;;;;6251911;28;20221;-50
2023/03/02 11:11:35;;;;;;;18.17;14.67;;;7.90;73.60;;;;;;6271967;28;20256;-50
2023/03/02 11:14:35;;;;;;;17.70;13.53;;;8.00;73.00;;;;;;6256316;28;20201;-52
2023/03/02 11:17:37;;;;;;;19.30;14.53;;;8.00;72.60;;;;;;6248119;28;20186;-48
2023/03/02 11:20:43;;;;;;;18.13;14.13;;;8.00;71.70;;;;;;6259583;28;20182;-50
2023/03/02 11:24:08;;;;;;;16.97;13.17;;;8.00;72.10;;;;;;6248017;28;20277;-49
2023/03/02 11:27:21;;;;;;;19.63;13.90;;;8.10;70.60;;;;;;6248325;28;20194;-52
2023/03/02 11:30:25;;;;;;;16.73;13.17;;;8.10;70.90;;;;;;6264422;28;20765;-50
2023/03/02 11:33:58;;;;;;;16.43;13.50;;;8.20;70.20;;;;;;6252972;28;20190;-50
2023/03/02 11:37:20;;;;;;;18.93;14.00;;;8.10;70.60;;;;;;6247997;28;20179;-51
2023/03/02 11:40:30;;;;;;;16.87;13.93;;;8.00;69.70;;;;;;6259794;28;20194;-51
2023/03/02 11:43:31;;;;;;;20.23;12.40;;;8.00;70.60;;;;;;6247475;28;20189;-49
2023/03/02 11:46:32;;;;;;;15.20;12.40;;;8.00;71.00;;;;;;6243554;28;20190;-51
2023/03/02 11:49:42;;;;;;;15.43;11.57;;;8.00;71.00;;;;;;6246711;28;20256;-49
2023/03/02 11:53:12;;;;;;;16.37;12.53;;;7.80;71.10;;;;;;6248238;28;20179;-51
2023/03/02 11:56:13;;;;;;;12.13;10.83;;;7.80;70.20;;;;;;6262620;28;20190;-50
2023/03/02 11:59:19;;;;;;;16.03;13.03;;;7.80;71.30;;;;;;6263125;28;20205;-54
2023/03/02 12:02:21;;;;;;;15.57;12.10;;;7.80;69.40;;;;;;6249133;28;20190;-49
2023/03/02 12:05:27;;;;;;;17.00;12.37;;;8.00;71.60;;;;;;6251788;28;20205;-50
2023/03/02 12:08:36;;;;;;;14.83;11.70;;;8.00;71.30;;;;;;6255233;28;20286;-49
2023/03/02 12:11:39;;;;;;;14.67;11.27;;;8.00;72.70;;;;;;6253288;28;20220;-50
2023/03/02 12:14:42;;;;;;;15.23;11.13;;;8.00;72.70;;;;;;6243236;28;20241;-48
2023/03/02 12:17:42;;;;;;;13.80;11.70;;;8.00;71.30;;;;;;6275777;28;20197;-49
2023/03/02 12:20:43;;;;;;;15.60;12.60;;;8.00;71.10;;;;;;6260867;28;20193;-48
2023/03/02 12:23:50;;;;;;;14.43;12.53;;;8.00;69.00;;;;;;6239126;28;20198;-47
2023/03/02 12:27:05;;;;;;;14.43;11.23;;;8.10;67.60;;;;;;6265880;28;20186;-50
2023/03/02 12:30:14;;;;;;;13.93;11.73;;;8.00;67.00;;;;;;6258305;28;20243;-47
2023/03/02 12:33:20;;;;;;;14.57;12.27;;;8.00;67.30;;;;;;6259331;28;20266;-49
2023/03/02 12:36:21;;;;;;;20.50;12.37;;;8.00;68.50;;;;;;6271750;28;20187;-51
2023/03/02 12:39:40;;;;;;;14.90;12.67;;;8.00;68.00;;;;;;6263195;28;20189;-51
2023/03/02 12:42:59;;;;;;;15.60;12.47;;;8.10;67.90;;;;;;6267969;28;20191;-49
2023/03/02 12:46:25;;;;;;;19.30;11.67;;;8.20;68.00;;;;;;6261518;28;20196;-54
2023/03/02 12:49:42;;;;;;;12.33;10.83;;;8.30;67.70;;;;;;6256802;28;20268;-51
2023/03/02 12:52:43;;;;;;;17.40;12.40;;;8.30;69.10;;;;;;6268715;28;20183;-47
2023/03/02 12:55:45;;;;;;;14.80;11.47;;;8.30;66.40;;;;;;6267613;28;20193;-49
2023/03/02 12:58:49;;;;;;;13.17;10.80;;;8.40;67.90;;;;;;6256770;28;20201;-50
2023/03/02 13:01:50;;;;;;;13.17;10.20;;;8.40;68.20;;;;;;6260642;28;20201;-49
2023/03/02 13:04:54;;;;;;;14.27;9.93;;;8.50;69.20;;;;;;6253839;28;20185;-48
2023/03/02 13:08:05;;;;;;;13.93;11.07;;;8.60;68.20;;;;;;6270528;28;20217;-50
2023/03/02 13:11:06;;;;;;;14.87;10.53;;;8.80;67.10;;;;;;6263381;28;20217;-48
2023/03/02 13:14:33;;;;;;;13.23;10.17;;;8.90;67.20;;;;;;6256537;28;20193;-49
2023/03/02 13:17:33;;;;;;;14.07;9.93;;;8.90;67.00;;;;;;6260282;28;20194;-50
2023/03/02 13:20:34;;;;;;;14.83;11.47;;;8.90;66.00;;;;;;6273700;28;20186;-49
2023/03/02 13:23:35;;;;;;;12.73;10.40;;;9.00;64.00;;;;;;6259089;28;20277;-48
2023/03/02 13:26:39;;;;;;;11.57;10.00;;;8.90;64.50;;;;;;6249035;28;20213;-49
2023/03/02 13:29:39;;;;;;;14.13;11.67;;;8.90;65.10;;;;;;6252239;28;20317;-48
2023/03/02 13:32:42;;;;;;;15.83;11.63;;;8.90;65.20;;;;;;6251471;28;20186;-49
2023/03/02 13:35:46;;;;;;;13.93;9.83;;;8.80;64.50;;;;;;6264948;28;20186;-48
2023/03/02 13:38:49;;;;;;;11.77;10.53;;;8.80;63.90;;;;;;6252602;28;20190;-50
2023/03/02 13:41:59;;;;;;;12.67;10.73;;;8.70;62.00;;;;;;6264306;28;20186;-49
2023/03/02 13:45:27;;;;;;;14.10;11.33;;;8.70;65.00;;;;;;6273263;28;20183;-50
2023/03/02 13:48:28;;;;;;;13.07;10.97;;;8.60;64.50;;;;;;6253845;28;20201;-49
2023/03/02 13:51:42;;;;;;;14.70;10.50;;;8.60;63.40;;;;;;6269560;28;20214;-50
2023/03/02 13:54:46;;;;;;;12.40;9.93;;;8.60;65.20;;;;;;6262069;28;20218;-49
2023/03/02 13:57:49;;;;;;;12.67;9.67;;;8.80;63.50;;;;;;6263928;28;20214;-50
2023/03/02 14:00:51;;;;;;;14.60;10.17;;;8.90;65.50;;;;;;6260520;28;20187;-53
2023/03/02 14:03:51;;;;;;;12.23;9.57;;;8.90;63.90;;;;;;6266610;28;20262;-51
2023/03/02 14:06:53;;;;;;;10.90;9.03;;;8.80;63.40;;;;;;6231169;28;20190;-52
2023/03/02 14:09:54;;;;;;;14.13;10.53;;;8.70;64.60;;;;;;6266320;28;20229;-51
2023/03/02 14:12:59;;;;;;;13.27;10.20;;;8.60;64.70;;;;;;6234795;28;20186;-48
2023/03/02 14:16:00;;;;;;;12.03;10.33;;;8.60;65.20;;;;;;6263306;28;20186;-50
2023/03/02 14:19:01;;;;;;;12.30;10.93;;;8.50;66.40;;;;;;6258168;28;20197;-48
2023/03/02 14:22:02;;;;;;;11.70;10.07;;;8.50;66.20;;;;;;6264096;28;20181;-49
2023/03/02 14:25:03;;;;;;;13.03;10.47;;;8.50;66.40;;;;;;6253396;28;20197;-51
2023/03/02 14:28:04;;;;;;;12.83;10.03;;;8.60;64.30;;;;;;6244678;28;20253;-52
2023/03/02 14:31:07;;;;;;;14.20;10.83;;;8.50;65.70;;;;;;6247481;28;20293;-49
2023/03/02 14:34:15;;;;;;;15.13;9.87;;;8.60;64.80;;;;;;6258000;28;20202;-52
2023/03/02 14:37:20;;;;;;;12.23;9.60;;;8.50;63.70;;;;;;6266000;28;20191;-55
2023/03/02 14:40:27;;;;;;;12.40;10.10;;;8.50;64.60;;;;;;6271926;28;20190;-50
2023/03/02 14:43:29;;;;;;;12.13;9.50;;;8.50;65.00;;;;;;6265950;28;20194;-48
2023/03/02 14:46:30;;;;;;;11.23;10.03;;;8.50;64.50;;;;;;6243774;28;20190;-46
2023/03/02 14:49:30;;;;;;;12.70;10.20;;;8.60;63.70;;;;;;6243111;28;20213;-49
2023/03/02 14:52:47;;;;;;;11.27;9.90;;;8.60;63.20;;;;;;6240748;28;20190;-47
2023/03/02 14:55:48;;;;;;;12.47;10.30;;;8.50;63.40;;;;;;6249199;28;20248;-48
2023/03/02 14:58:52;;;;;;;11.30;9.83;;;8.50;64.60;;;;;;6269016;28;20193;-48
2023/03/02 15:01:53;;;;;;;11.53;9.87;;;8.50;63.10;;;;;;6248971;28;20197;-50
2023/03/02 15:04:55;;;;;;;12.90;10.57;;;8.40;63.60;;;;;;6257095;28;20224;-47
2023/03/02 15:07:56;;;;;;;11.63;9.70;;;8.40;64.40;;;;;;6264741;28;20192;-51
2023/03/02 15:10:57;;;;;;;12.37;9.77;;;8.30;64.00;;;;;;6256610;28;20553;-48
2023/03/02 15:13:58;;;;;;;11.43;9.07;;;8.30;65.00;;;;;;6256285;28;20193;-50
2023/03/02 15:16:58;;;;;;;13.20;9.90;;;8.30;64.70;;;;;;6248578;28;20230;-46
2023/03/02 15:19:59;;;;;;;9.83;8.30;;;8.20;62.70;;;;;;6239619;28;20197;-48
2023/03/02 15:23:00;;;;;;;10.57;8.30;;;8.20;62.90;;;;;;6250062;28;20256;-46
2023/03/02 15:26:02;;;;;;;13.30;9.03;;;8.10;64.20;;;;;;6261958;28;20250;-48
2023/03/02 15:29:04;;;;;;;10.97;9.60;;;8.00;63.70;;;;;;6238930;28;20230;-47
2023/03/02 15:32:04;;;;;;;13.40;10.17;;;8.00;65.50;;;;;;6249335;28;20192;-49
2023/03/02 15:35:06;;;;;;;12.00;8.60;;;8.00;65.80;;;;;;6264741;28;20185;-50
2023/03/02 15:38:07;;;;;;;12.67;9.93;;;8.00;67.10;;;;;;6263103;28;20217;-51
2023/03/02 15:41:11;;;;;;;9.10;8.17;;;8.00;67.00;;;;;;6258775;28;20194;-48
2023/03/02 15:44:20;;;;;;;9.83;8.30;;;8.00;66.30;;;;;;6263937;28;20198;-48
2023/03/02 15:47:21;;;;;;;12.63;9.00;;;8.00;66.20;;;;;;6241640;28;20188;-51